Time;durP1;ratioP1;P1;durP2;ratioP2;P2;SDS_P1;SDS_P2;PMS_P1;PMS_P2;Temp;Humidity;BMP_temperature;BMP_pressure;BME280_temperature;BME280_humidity;BME280_pressure;Samples;Min_cycle;Max_cycle;Signal;HPM_P1;HPM_P2
2024/03/21 00:04:20;;;;;;;;;;;;;;;7.87;100.00;96002.16;10475087;28;2814;-72
2024/03/21 00:09:22;;;;;;;;;;;;;;;7.89;100.00;95994.72;10490827;28;2617;-71
2024/03/21 00:14:25;;;;;;;;;;;;;;;7.92;100.00;95994.19;10478024;28;2903;-72
2024/03/21 00:19:26;;;;;;;;;;;;;;;7.83;100.00;95988.50;10493712;28;2907;-68
2024/03/21 00:24:28;;;;;;;;;;;;;;;7.83;100.00;95990.34;10488771;28;2803;-67
2024/03/21 00:29:30;;;;;;;;;;;;;;;7.86;100.00;95976.47;10498889;28;2882;-66
2024/03/21 00:34:31;;;;;;;;;;;;;;;7.77;100.00;95972.63;10498615;28;2796;-67
2024/03/21 00:39:33;;;;;;;;;;;;;;;7.68;100.00;95977.59;10500405;28;2861;-67
2024/03/21 00:44:35;;;;;;;;;;;;;;;7.70;100.00;95974.66;10481023;28;2767;-67
2024/03/21 00:49:36;;;;;;;;;;;;;;;7.75;100.00;95977.41;10484912;28;2825;-68
2024/03/21 00:54:38;;;;;;;;;;;;;;;7.72;100.00;95977.91;10508937;28;2946;-67
2024/03/21 00:59:40;;;;;;;;;;;;;;;7.59;100.00;95966.53;10494883;28;2869;-67
2024/03/21 01:04:43;;;;;;;;;;;;;;;7.66;100.00;95968.22;10503005;28;2723;-67
2024/03/21 01:09:45;;;;;;;;;;;;;;;7.58;100.00;95967.59;10505379;28;2834;-66
2024/03/21 01:14:47;;;;;;;;;;;;;;;7.44;100.00;95971.69;10498811;28;2835;-67
2024/03/21 01:19:49;;;;;;;;;;;;;;;7.30;100.00;95968.56;10498072;28;2800;-70
2024/03/21 01:24:51;;;;;;;;;;;;;;;7.21;100.00;95964.72;10496589;28;2970;-66
2024/03/21 01:29:52;;;;;;;;;;;;;;;7.16;100.00;95964.66;10494620;28;2621;-67
2024/03/21 01:34:54;;;;;;;;;;;;;;;7.11;100.00;95964.56;10493936;28;2929;-73
2024/03/21 01:39:55;;;;;;;;;;;;;;;7.06;100.00;95953.81;10500330;28;2931;-72
2024/03/21 01:44:57;;;;;;;;;;;;;;;7.01;100.00;95945.75;10480119;28;2900;-68
2024/03/21 01:49:58;;;;;;;;;;;;;;;6.98;100.00;95938.19;10492733;28;2782;-68
2024/03/21 01:55:00;;;;;;;;;;;;;;;6.93;100.00;95938.13;10499628;28;2892;-69
2024/03/21 02:00:03;;;;;;;;;;;;;;;6.90;100.00;95928.75;10493994;28;2828;-68
2024/03/21 02:05:05;;;;;;;;;;;;;;;6.83;100.00;95941.47;10499836;28;3088;-67
2024/03/21 02:10:07;;;;;;;;;;;;;;;6.78;100.00;95936.06;10498038;28;2777;-67
2024/03/21 02:15:09;;;;;;;;;;;;;;;6.83;100.00;95928.13;10477701;28;2842;-69
2024/03/21 02:20:12;;;;;;;;;;;;;;;6.89;100.00;95931.66;10494660;28;2787;-67
2024/03/21 02:25:14;;;;;;;;;;;;;;;6.99;100.00;95926.44;10495505;28;2812;-65
2024/03/21 02:30:16;;;;;;;;;;;;;;;7.00;100.00;95915.53;10494567;28;2953;-67
2024/03/21 02:35:17;;;;;;;;;;;;;;;7.02;100.00;95913.41;10490898;28;2893;-66
2024/03/21 02:40:19;;;;;;;;;;;;;;;7.07;100.00;95914.53;10491696;28;2878;-67
2024/03/21 02:45:21;;;;;;;;;;;;;;;7.12;100.00;95911.91;10496452;28;2665;-73
2024/03/21 02:50:22;;;;;;;;;;;;;;;7.18;100.00;95903.72;10479912;28;2720;-67
2024/03/21 02:55:24;;;;;;;;;;;;;;;7.12;100.00;95904.69;10496175;28;3004;-67
2024/03/21 03:00:26;;;;;;;;;;;;;;;7.12;100.00;95906.56;10496439;28;2805;-68
2024/03/21 03:05:28;;;;;;;;;;;;;;;7.16;100.00;95902.34;10490053;28;2765;-69
2024/03/21 03:10:29;;;;;;;;;;;;;;;7.02;100.00;95899.25;10491606;28;2919;-68
2024/03/21 03:15:31;;;;;;;;;;;;;;;6.97;100.00;95902.66;10491717;28;2824;-68
2024/03/21 03:20:33;;;;;;;;;;;;;;;7.00;100.00;95902.16;10492399;28;2809;-67
2024/03/21 03:25:35;;;;;;;;;;;;;;;7.08;100.00;95902.78;10497667;28;2910;-65
2024/03/21 03:30:37;;;;;;;;;;;;;;;7.25;100.00;95900.84;10492267;28;2801;-67
2024/03/21 03:35:41;;;;;;;;;;;;;;;7.31;100.00;95908.69;10493510;28;2835;-67
2024/03/21 03:40:42;;;;;;;;;;;;;;;7.30;100.00;95906.25;10494663;28;2851;-66
2024/03/21 03:45:45;;;;;;;;;;;;;;;7.26;100.00;95905.16;10493219;28;2931;-68
2024/03/21 03:50:46;;;;;;;;;;;;;;;7.21;100.00;95911.25;10495269;28;2567;-68
2024/03/21 03:55:48;;;;;;;;;;;;;;;7.19;100.00;95915.22;10492128;28;2832;-67
2024/03/21 04:00:49;;;;;;;;;;;;;;;7.24;100.00;95913.41;10490823;28;2834;-68
2024/03/21 04:05:51;;;;;;;;;;;;;;;7.24;100.00;95917.94;10495493;28;2730;-68
2024/03/21 04:10:53;;;;;;;;;;;;;;;7.28;100.00;95913.72;10492616;28;2880;-67
2024/03/21 04:15:55;;;;;;;;;;;;;;;7.28;100.00;95914.53;10490367;28;2956;-67
2024/03/21 04:20:56;;;;;;;;;;;;;;;7.32;100.00;95918.34;10490932;28;2857;-65
2024/03/21 04:25:58;;;;;;;;;;;;;;;7.33;100.00;95903.09;10488269;28;2863;-69
2024/03/21 04:30:59;;;;;;;;;;;;;;;7.35;100.00;95913.53;10492005;28;2896;-67
2024/03/21 04:36:03;;;;;;;;;;;;;;;7.35;100.00;95917.03;10491196;28;2869;-67
2024/03/21 04:41:05;;;;;;;;;;;;;;;7.54;100.00;95918.31;10492277;28;2880;-67
2024/03/21 04:46:07;;;;;;;;;;;;;;;7.76;100.00;95922.81;10509094;28;2801;-69
2024/03/21 04:51:09;;;;;;;;;;;;;;;7.75;100.00;95919.34;10494741;28;2847;-68
2024/03/21 04:56:10;;;;;;;;;;;;;;;7.69;100.00;95920.34;10490502;28;2767;-66
2024/03/21 05:01:12;;;;;;;;;;;;;;;7.65;100.00;95913.09;10490226;28;2867;-67
2024/03/21 05:06:14;;;;;;;;;;;;;;;7.63;100.00;95923.22;10495617;28;2796;-69
2024/03/21 05:11:16;;;;;;;;;;;;;;;7.61;100.00;95928.00;10476842;28;2724;-67
2024/03/21 05:16:17;;;;;;;;;;;;;;;7.61;100.00;95928.00;10493465;28;2633;-66
2024/03/21 05:21:20;;;;;;;;;;;;;;;7.70;100.00;95926.50;10502190;28;2655;-70
2024/03/21 05:26:22;;;;;;;;;;;;;;;7.77;100.00;95925.25;10478560;28;2735;-66
2024/03/21 05:31:24;;;;;;;;;;;;;;;7.83;100.00;95918.91;10499342;28;2886;-67
2024/03/21 05:36:26;;;;;;;;;;;;;;;7.91;100.00;95912.28;10496645;28;2805;-67
2024/03/21 05:41:27;;;;;;;;;;;;;;;7.98;100.00;95912.88;10496118;28;2838;-68
2024/03/21 05:46:29;;;;;;;;;;;;;;;8.04;100.00;95917.22;10494850;28;2814;-67
2024/03/21 05:51:30;;;;;;;;;;;;;;;8.11;100.00;95928.53;10498855;28;2870;-69
2024/03/21 05:56:32;;;;;;;;;;;;;;;8.25;100.00;95912.03;10497537;28;2785;-66
2024/03/21 06:01:34;;;;;;;;;;;;;;;8.49;100.00;95916.03;10499030;28;2884;-68
2024/03/21 06:06:35;;;;;;;;;;;;;;;8.86;100.00;95924.06;10500679;28;2843;-67
2024/03/21 06:11:37;;;;;;;;;;;;;;;9.12;100.00;95922.31;10499463;28;2849;-77
2024/03/21 06:16:39;;;;;;;;;;;;;;;9.53;100.00;95914.44;10506260;28;2778;-71
2024/03/21 06:21:41;;;;;;;;;;;;;;;9.93;100.00;95915.66;10496649;28;2727;-71
2024/03/21 06:26:42;;;;;;;;;;;;;;;10.45;100.00;95907.38;10497099;28;2868;-69
2024/03/21 06:31:44;;;;;;;;;;;;;;;11.07;100.00;95913.50;10496114;28;2938;-68
2024/03/21 06:36:46;;;;;;;;;;;;;;;11.49;100.00;95915.75;10493935;28;2845;-69
2024/03/21 06:41:48;;;;;;;;;;;;;;;11.53;100.00;95916.03;10494540;28;2821;-67
2024/03/21 06:46:49;;;;;;;;;;;;;;;11.37;100.00;95909.88;10491685;28;2781;-69
2024/03/21 06:51:51;;;;;;;;;;;;;;;11.36;100.00;95917.16;10498023;28;2703;-69
2024/03/21 06:56:53;;;;;;;;;;;;;;;11.43;100.00;95921.44;10500335;28;2832;-69
2024/03/21 07:01:55;;;;;;;;;;;;;;;11.69;100.00;95920.25;10495290;28;2895;-67
2024/03/21 07:06:57;;;;;;;;;;;;;;;11.97;100.00;95926.88;10479110;28;2739;-70
2024/03/21 07:11:58;;;;;;;;;;;;;;;12.34;100.00;95929.06;10489504;28;3240;-68
2024/03/21 07:17:00;;;;;;;;;;;;;;;12.44;100.00;95930.88;10492945;28;2917;-69
2024/03/21 07:22:03;;;;;;;;;;;;;;;12.62;100.00;95922.09;10497062;28;2860;-69
2024/03/21 07:27:05;;;;;;;;;;;;;;;13.19;100.00;95944.78;10493465;28;2762;-68
2024/03/21 07:32:07;;;;;;;;;;;;;;;13.39;100.00;95951.88;10495711;28;2987;-69
2024/03/21 07:37:16;;;;;;;;;;;;;;;13.41;100.00;95962.38;10497687;28;2738;-69
2024/03/21 07:42:17;;;;;;;;;;;;;;;13.86;100.00;95952.13;10490408;28;2746;-69
2024/03/21 07:47:19;;;;;;;;;;;;;;;13.98;100.00;95961.44;10493480;28;2888;-69
2024/03/21 07:52:21;;;;;;;;;;;;;;;13.95;100.00;95963.94;10503427;28;2739;-72
2024/03/21 07:57:23;;;;;;;;;;;;;;;14.21;100.00;95961.69;10495063;28;2827;-73
2024/03/21 08:02:25;;;;;;;;;;;;;;;14.51;100.00;95971.28;10483928;28;2620;-74
2024/03/21 08:07:26;;;;;;;;;;;;;;;14.36;100.00;95985.00;10480229;28;2868;-69
2024/03/21 08:12:28;;;;;;;;;;;;;;;14.42;100.00;95981.91;10495107;28;3023;-70
2024/03/21 08:17:29;;;;;;;;;;;;;;;14.69;100.00;95992.09;10492477;28;2706;-70
2024/03/21 08:22:31;;;;;;;;;;;;;;;14.81;100.00;95992.44;10495009;28;2808;-67
2024/03/21 08:27:33;;;;;;;;;;;;;;;15.25;100.00;95991.19;10491305;28;2866;-68
2024/03/21 08:32:34;;;;;;;;;;;;;;;15.07;100.00;95990.13;10502951;28;2787;-68
2024/03/21 08:37:36;;;;;;;;;;;;;;;15.52;100.00;96005.88;10491264;28;2840;-70
2024/03/21 08:42:38;;;;;;;;;;;;;;;15.76;100.00;96013.84;10481083;28;2800;-70
2024/03/21 08:47:40;;;;;;;;;;;;;;;16.11;100.00;96007.72;10498234;28;2900;-69
2024/03/21 08:52:41;;;;;;;;;;;;;;;15.64;100.00;96017.84;10505529;28;2609;-69
2024/03/21 08:57:43;;;;;;;;;;;;;;;15.46;100.00;96023.31;10503816;28;2802;-68
2024/03/21 09:02:45;;;;;;;;;;;;;;;15.01;100.00;96033.81;10479709;28;2871;-69
2024/03/21 09:07:47;;;;;;;;;;;;;;;14.32;100.00;96036.16;10500763;28;2829;-70
2024/03/21 09:12:49;;;;;;;;;;;;;;;13.69;100.00;96036.38;10503420;28;2852;-70
2024/03/21 09:17:51;;;;;;;;;;;;;;;13.14;100.00;96058.19;10503954;28;2726;-69
2024/03/21 09:22:52;;;;;;;;;;;;;;;12.33;100.00;96070.31;10498882;28;2756;-69
2024/03/21 09:27:54;;;;;;;;;;;;;;;11.81;100.00;96101.22;10502788;28;2833;-70
2024/03/21 09:32:55;;;;;;;;;;;;;;;11.29;100.00;96107.72;10495987;28;2658;-71
2024/03/21 09:37:58;;;;;;;;;;;;;;;10.80;100.00;96113.59;10493845;28;2862;-70
2024/03/21 09:43:00;;;;;;;;;;;;;;;10.66;100.00;96123.25;10498934;28;2777;-69
2024/03/21 09:48:02;;;;;;;;;;;;;;;10.49;100.00;96128.03;10514651;28;2804;-69
2024/03/21 09:53:03;;;;;;;;;;;;;;;10.41;100.00;96137.41;10497547;28;2812;-71
2024/03/21 09:58:05;;;;;;;;;;;;;;;10.39;100.00;96149.50;10508111;28;2736;-72
2024/03/21 10:03:08;;;;;;;;;;;;;;;10.40;100.00;96145.75;10502348;28;2805;-68
2024/03/21 10:08:10;;;;;;;;;;;;;;;10.38;100.00;96161.34;10494104;28;2828;-71
2024/03/21 10:13:12;;;;;;;;;;;;;;;10.23;100.00;96162.06;10496844;28;2592;-70
2024/03/21 10:18:14;;;;;;;;;;;;;;;10.14;100.00;96163.59;10480080;28;2788;-69
2024/03/21 10:23:15;;;;;;;;;;;;;;;10.23;100.00;96149.44;10487143;28;2832;-71
2024/03/21 10:28:17;;;;;;;;;;;;;;;10.27;100.00;96153.22;10501310;28;2787;-69
2024/03/21 10:33:19;;;;;;;;;;;;;;;10.25;100.00;96163.44;10502741;28;2915;-69
2024/03/21 10:38:21;;;;;;;;;;;;;;;10.28;100.00;96154.03;10503708;28;2766;-70
2024/03/21 10:43:23;;;;;;;;;;;;;;;10.37;100.00;96157.00;10496402;28;2815;-70
2024/03/21 10:48:24;;;;;;;;;;;;;;;10.45;100.00;96143.88;10500603;28;2965;-70
2024/03/21 10:53:26;;;;;;;;;;;;;;;10.58;100.00;96137.22;10502128;28;2727;-71
2024/03/21 10:58:28;;;;;;;;;;;;;;;10.63;100.00;96145.28;10492947;28;2781;-76
2024/03/21 11:03:30;;;;;;;;;;;;;;;10.49;100.00;96144.97;10493641;28;2801;-72
2024/03/21 11:08:31;;;;;;;;;;;;;;;10.44;100.00;96146.84;10499352;28;2810;-70
2024/03/21 11:13:33;;;;;;;;;;;;;;;10.41;100.00;96148.16;10497595;28;2838;-70
2024/03/21 11:18:35;;;;;;;;;;;;;;;10.42;100.00;96138.22;10499250;28;2847;-70
2024/03/21 11:23:36;;;;;;;;;;;;;;;10.43;100.00;96142.53;10499402;28;2810;-69
2024/03/21 11:28:38;;;;;;;;;;;;;;;10.38;100.00;96154.06;10503700;28;2811;-71
2024/03/21 11:33:40;;;;;;;;;;;;;;;10.48;100.00;96143.34;10495823;28;2737;-72
2024/03/21 11:38:44;;;;;;;;;;;;;;;10.49;100.00;96138.78;10491078;28;2709;-70
2024/03/21 11:43:46;;;;;;;;;;;;;;;10.73;100.00;96118.41;10493361;28;2803;-74
2024/03/21 11:48:47;;;;;;;;;;;;;;;10.81;100.00;96136.75;10498690;28;2754;-71
2024/03/21 11:53:49;;;;;;;;;;;;;;;10.97;100.00;96126.00;10485199;28;2809;-70
2024/03/21 11:58:51;;;;;;;;;;;;;;;11.47;100.00;96130.59;10500655;28;2919;-72
2024/03/21 12:03:53;;;;;;;;;;;;;;;11.81;100.00;96122.75;10496886;28;2910;-70
2024/03/21 12:08:55;;;;;;;;;;;;;;;11.97;100.00;96114.66;10493646;28;2951;-70
2024/03/21 12:13:57;;;;;;;;;;;;;;;12.13;100.00;96110.81;10493067;28;2864;-71
2024/03/21 12:18:59;;;;;;;;;;;;;;;12.68;100.00;96112.47;10496582;28;2858;-70
2024/03/21 12:24:00;;;;;;;;;;;;;;;12.93;100.00;96103.41;10490983;28;2833;-71
2024/03/21 12:29:02;;;;;;;;;;;;;;;12.92;100.00;96106.41;10498761;28;2811;-74
2024/03/21 12:34:04;;;;;;;;;;;;;;;12.55;100.00;96105.00;10505443;28;2864;-71
2024/03/21 12:39:07;;;;;;;;;;;;;;;12.18;100.00;96110.81;10493590;28;2852;-70
2024/03/21 12:44:09;;;;;;;;;;;;;;;11.83;100.00;96109.00;10494058;28;2730;-70
2024/03/21 12:49:10;;;;;;;;;;;;;;;11.47;100.00;96117.13;10499051;28;2814;-69
2024/03/21 12:54:12;;;;;;;;;;;;;;;11.21;100.00;96119.03;10495995;28;2783;-69
2024/03/21 12:59:14;;;;;;;;;;;;;;;11.22;100.00;96123.31;10491783;28;2779;-69
2024/03/21 13:04:15;;;;;;;;;;;;;;;11.44;100.00;96120.34;10481719;28;2927;-69
2024/03/21 13:09:17;;;;;;;;;;;;;;;11.82;100.00;96108.22;10498112;28;2828;-71
2024/03/21 13:14:19;;;;;;;;;;;;;;;12.00;100.00;96087.97;10492796;28;2939;-69
2024/03/21 13:19:22;;;;;;;;;;;;;;;12.20;100.00;96068.22;10489179;28;2816;-69
2024/03/21 13:24:24;;;;;;;;;;;;;;;12.50;100.00;96061.88;10493343;28;2795;-70
2024/03/21 13:29:26;;;;;;;;;;;;;;;12.57;100.00;96048.88;10507791;28;2940;-70
2024/03/21 13:34:28;;;;;;;;;;;;;;;12.67;100.00;96021.84;10493444;28;2778;-70
2024/03/21 13:39:30;;;;;;;;;;;;;;;13.04;100.00;96023.19;10501579;28;2832;-74
2024/03/21 13:44:31;;;;;;;;;;;;;;;13.73;100.00;96016.59;10498787;28;2932;-71
2024/03/21 13:49:33;;;;;;;;;;;;;;;14.20;100.00;96014.16;10516451;28;2808;-70
2024/03/21 13:54:37;;;;;;;;;;;;;;;14.20;100.00;96017.66;10512815;27;2739;-72
2024/03/21 13:59:39;;;;;;;;;;;;;;;13.80;100.00;96027.03;10485523;28;2833;-75
2024/03/21 14:04:40;;;;;;;;;;;;;;;13.49;100.00;96022.00;10492842;28;2673;-70
2024/03/21 14:09:42;;;;;;;;;;;;;;;13.16;100.00;96023.59;10495260;28;2604;-70
2024/03/21 14:14:43;;;;;;;;;;;;;;;11.78;100.00;96112.50;10497915;28;2809;-69
2024/03/21 14:19:45;;;;;;;;;;;;;;;9.78;100.00;96123.13;10494778;28;2863;-72
2024/03/21 14:24:47;;;;;;;;;;;;;;;8.98;100.00;96103.50;10495479;28;2888;-71
2024/03/21 14:29:48;;;;;;;;;;;;;;;8.81;100.00;96124.25;10497044;28;2871;-72
2024/03/21 14:34:50;;;;;;;;;;;;;;;8.99;100.00;96131.94;10494435;28;2860;-71
2024/03/21 14:39:53;;;;;;;;;;;;;;;9.32;100.00;96146.16;10499903;28;2885;-75
2024/03/21 14:44:55;;;;;;;;;;;;;;;9.79;100.00;96137.34;10499637;28;2737;-75
2024/03/21 14:49:56;;;;;;;;;;;;;;;10.24;100.00;96136.78;10498949;28;2758;-76
2024/03/21 14:54:58;;;;;;;;;;;;;;;10.67;100.00;96114.09;10501832;28;2718;-72
2024/03/21 15:00:00;;;;;;;;;;;;;;;10.47;100.00;96114.06;10485005;28;2872;-74
2024/03/21 15:05:04;;;;;;;;;;;;;;;10.40;100.00;96111.63;10496878;28;2995;-71
2024/03/21 15:10:05;;;;;;;;;;;;;;;10.33;100.00;96131.75;10498434;28;2876;-70
2024/03/21 15:15:07;;;;;;;;;;;;;;;10.35;100.00;96141.16;10491951;28;3088;-72
2024/03/21 15:20:08;;;;;;;;;;;;;;;10.34;100.00;96157.53;10494096;28;2619;-71
2024/03/21 15:25:10;;;;;;;;;;;;;;;10.23;100.00;96157.50;10478787;28;2579;-71
2024/03/21 15:30:12;;;;;;;;;;;;;;;10.07;100.00;96169.22;10497290;28;2849;-70
2024/03/21 15:35:14;;;;;;;;;;;;;;;9.99;100.00;96183.13;10503369;28;2887;-69
2024/03/21 15:40:16;;;;;;;;;;;;;;;9.81;100.00;96179.00;10498861;28;2843;-71
2024/03/21 15:45:18;;;;;;;;;;;;;;;9.71;100.00;96185.09;10493118;28;2753;-70
2024/03/21 15:50:19;;;;;;;;;;;;;;;9.56;100.00;96147.41;10498432;28;2756;-71
2024/03/21 15:55:21;;;;;;;;;;;;;;;9.69;100.00;96146.97;10496667;28;2642;-71
2024/03/21 16:00:23;;;;;;;;;;;;;;;9.72;100.00;96151.81;10489927;28;2824;-71
2024/03/21 16:05:24;;;;;;;;;;;;;;;9.84;100.00;96158.84;10492660;28;2833;-70
2024/03/21 16:10:26;;;;;;;;;;;;;;;10.11;100.00;96143.44;10497192;28;2800;-70
2024/03/21 16:15:28;;;;;;;;;;;;;;;10.29;100.00;96145.69;10492932;28;2745;-71
2024/03/21 16:20:30;;;;;;;;;;;;;;;10.22;100.00;96158.53;10495582;28;2832;-71
2024/03/21 16:25:31;;;;;;;;;;;;;;;10.13;100.00;96168.16;10491591;28;2773;-72
2024/03/21 16:30:33;;;;;;;;;;;;;;;10.16;100.00;96173.00;10494358;28;2934;-73
2024/03/21 16:35:34;;;;;;;;;;;;;;;10.19;100.00;96172.50;10497325;28;2650;-71
2024/03/21 16:40:36;;;;;;;;;;;;;;;10.24;100.00;96183.31;10491869;28;2665;-71
2024/03/21 16:45:38;;;;;;;;;;;;;;;10.38;100.00;96185.53;10491996;28;2655;-71
2024/03/21 16:50:40;;;;;;;;;;;;;;;10.27;100.00;96195.41;10489881;28;2944;-71
2024/03/21 16:55:41;;;;;;;;;;;;;;;10.22;100.00;96208.78;10500314;28;2725;-69
2024/03/21 17:00:43;;;;;;;;;;;;;;;10.06;100.00;96209.75;10498466;28;2592;-71
2024/03/21 17:05:47;;;;;;;;;;;;;;;9.86;100.00;96218.47;10503604;28;2867;-72
2024/03/21 17:10:52;;;;;;;;;;;;;;;9.76;100.00;96232.66;10495953;28;3008;-76
2024/03/21 17:15:53;;;;;;;;;;;;;;;9.77;100.00;96238.81;10498647;28;2793;-70
2024/03/21 17:20:56;;;;;;;;;;;;;;;9.73;100.00;96244.72;10497146;28;2820;-70
2024/03/21 17:25:58;;;;;;;;;;;;;;;9.81;100.00;96245.31;10498797;28;2826;-70
2024/03/21 17:30:59;;;;;;;;;;;;;;;9.90;100.00;96254.50;10494220;28;2879;-71
2024/03/21 17:36:01;;;;;;;;;;;;;;;9.83;100.00;96264.66;10500844;28;2786;-71
2024/03/21 17:41:03;;;;;;;;;;;;;;;9.77;100.00;96266.47;10503733;28;2875;-69
2024/03/21 17:46:05;;;;;;;;;;;;;;;9.72;100.00;96296.75;10503461;28;2627;-71
2024/03/21 17:51:07;;;;;;;;;;;;;;;9.82;100.00;96312.16;10506542;28;2617;-71
2024/03/21 17:56:09;;;;;;;;;;;;;;;9.73;100.00;96309.16;10501109;28;2966;-71
2024/03/21 18:01:11;;;;;;;;;;;;;;;9.75;100.00;96320.44;10496985;28;2619;-70
2024/03/21 18:06:13;;;;;;;;;;;;;;;9.73;100.00;96309.16;10485445;28;2595;-71
2024/03/21 18:11:15;;;;;;;;;;;;;;;9.64;100.00;96326.75;10466707;28;2809;-71
2024/03/21 18:16:17;;;;;;;;;;;;;;;9.55;100.00;96324.81;10500149;28;2738;-69
2024/03/21 18:21:19;;;;;;;;;;;;;;;9.46;100.00;96338.66;10496635;28;2849;-71
2024/03/21 18:26:24;;;;;;;;;;;;;;;9.39;100.00;96342.59;10499720;28;2550;-70
2024/03/21 18:31:26;;;;;;;;;;;;;;;9.39;100.00;96345.28;10498953;28;2673;-71
2024/03/21 18:36:31;;;;;;;;;;;;;;;9.41;100.00;96354.69;10485633;28;2556;-72
2024/03/21 18:41:33;;;;;;;;;;;;;;;9.42;100.00;96350.16;10500057;28;2620;-73
2024/03/21 18:46:36;;;;;;;;;;;;;;;9.51;100.00;96358.56;10493529;28;2858;-71
2024/03/21 18:51:37;;;;;;;;;;;;;;;9.52;100.00;96355.63;10500208;28;2906;-71
2024/03/21 18:56:41;;;;;;;;;;;;;;;9.50;100.00;96351.59;10498190;28;2719;-72
2024/03/21 19:01:42;;;;;;;;;;;;;;;9.51;100.00;96359.38;10504811;28;2785;-71
2024/03/21 19:06:44;;;;;;;;;;;;;;;9.50;100.00;96368.50;10497891;28;2766;-73
2024/03/21 19:11:46;;;;;;;;;;;;;;;9.40;100.00;96373.75;10500958;28;2919;-70
2024/03/21 19:16:48;;;;;;;;;;;;;;;9.30;100.00;96379.00;10497414;28;2855;-70
2024/03/21 19:21:50;;;;;;;;;;;;;;;9.19;100.00;96372.69;10499417;28;2786;-70
2024/03/21 19:26:51;;;;;;;;;;;;;;;9.12;100.00;96383.63;10498507;28;2707;-70
2024/03/21 19:31:53;;;;;;;;;;;;;;;9.03;100.00;96371.69;10477137;28;2603;-70
2024/03/21 19:36:55;;;;;;;;;;;;;;;8.97;100.00;96369.19;10494016;28;2902;-72
2024/03/21 19:41:56;;;;;;;;;;;;;;;8.86;100.00;96368.25;10495603;28;2644;-75
2024/03/21 19:46:58;;;;;;;;;;;;;;;8.73;100.00;96385.50;10494163;28;2760;-74
2024/03/21 19:52:03;;;;;;;;;;;;;;;8.58;100.00;96394.13;10499913;28;2781;-71
2024/03/21 19:57:04;;;;;;;;;;;;;;;8.54;100.00;96403.72;10493828;28;2795;-72
2024/03/21 20:02:06;;;;;;;;;;;;;;;8.52;100.00;96410.38;10494944;28;2527;-69
2024/03/21 20:07:09;;;;;;;;;;;;;;;8.38;100.00;96415.25;10494803;28;2949;-71
2024/03/21 20:12:10;;;;;;;;;;;;;;;8.27;100.00;96416.09;10495803;28;2768;-71
2024/03/21 20:17:11;;;;;;;;;;;;;;;8.16;100.00;96411.66;10492554;28;2792;-70
2024/03/21 20:22:13;;;;;;;;;;;;;;;8.09;100.00;96417.16;10496084;28;2848;-71
2024/03/21 20:27:15;;;;;;;;;;;;;;;8.06;100.00;96425.66;10492706;28;2825;-70
2024/03/21 20:32:17;;;;;;;;;;;;;;;7.98;100.00;96413.50;10490221;28;2614;-70
2024/03/21 20:37:18;;;;;;;;;;;;;;;7.92;100.00;96424.34;10493761;28;2810;-70
2024/03/21 20:42:20;;;;;;;;;;;;;;;7.89;100.00;96424.81;10491960;28;2876;-70
2024/03/21 20:47:23;;;;;;;;;;;;;;;7.74;100.00;96431.53;10496572;28;2999;-71
2024/03/21 20:52:24;;;;;;;;;;;;;;;7.70;100.00;96440.25;10498141;28;2781;-68
2024/03/21 20:57:26;;;;;;;;;;;;;;;7.67;100.00;96432.72;10508557;28;2588;-69
2024/03/21 21:02:28;;;;;;;;;;;;;;;7.57;100.00;96447.53;10496121;28;2844;-71
2024/03/21 21:07:29;;;;;;;;;;;;;;;7.53;100.00;96440.22;10496623;28;2789;-73
2024/03/21 21:12:31;;;;;;;;;;;;;;;7.48;100.00;96446.28;10502095;28;2849;-71
2024/03/21 21:17:33;;;;;;;;;;;;;;;7.44;100.00;96442.44;10504675;28;2818;-73
2024/03/21 21:22:36;;;;;;;;;;;;;;;7.42;100.00;96433.84;10495180;28;2780;-73
2024/03/21 21:27:38;;;;;;;;;;;;;;;7.45;100.00;96448.63;10497384;28;2952;-74
2024/03/21 21:32:43;;;;;;;;;;;;;;;7.43;100.00;96435.47;10491616;28;2784;-72
2024/03/21 21:37:48;;;;;;;;;;;;;;;7.38;100.00;96438.06;10499196;28;2837;-72
2024/03/21 21:42:58;;;;;;;;;;;;;;;7.34;100.00;96442.25;10497861;28;2865;-71
2024/03/21 21:48:00;;;;;;;;;;;;;;;7.27;100.00;96439.72;10485453;28;2794;-73
2024/03/21 21:53:01;;;;;;;;;;;;;;;7.18;100.00;96440.31;10480276;28;2773;-72
2024/03/21 21:58:04;;;;;;;;;;;;;;;7.15;100.00;96443.47;10501575;28;2829;-72
2024/03/21 22:03:09;;;;;;;;;;;;;;;7.11;100.00;96436.94;10498754;28;2758;-72
2024/03/21 22:08:16;;;;;;;;;;;;;;;7.03;100.00;96441.59;10481444;28;2871;-72
2024/03/21 22:13:28;;;;;;;;;;;;;;;7.08;100.00;96442.78;10503184;28;2782;-72
2024/03/21 22:18:34;;;;;;;;;;;;;;;7.03;100.00;96449.63;10499202;28;2832;-70
2024/03/21 22:23:37;;;;;;;;;;;;;;;7.03;100.00;96441.59;10480612;28;2683;-70
2024/03/21 22:28:40;;;;;;;;;;;;;;;7.02;100.00;96445.34;10496494;28;2800;-69
2024/03/21 22:33:42;;;;;;;;;;;;;;;7.05;100.00;96438.69;10480700;28;2911;-71
2024/03/21 22:38:44;;;;;;;;;;;;;;;7.10;100.00;96427.31;10503642;28;2793;-68
2024/03/21 22:49:18;;;;;;;;;;;;;;;7.01;100.00;96432.22;10501296;28;2807;-70
2024/03/21 22:54:20;;;;;;;;;;;;;;;6.92;100.00;96423.72;10505862;28;2753;-73
2024/03/21 22:59:23;;;;;;;;;;;;;;;6.96;100.00;96427.56;10504150;28;2761;-71
2024/03/21 23:04:24;;;;;;;;;;;;;;;6.89;100.00;96429.53;10495946;28;2757;-74
2024/03/21 23:09:26;;;;;;;;;;;;;;;6.78;100.00;96427.69;10495054;28;2733;-72
2024/03/21 23:14:28;;;;;;;;;;;;;;;6.72;100.00;96431.28;10491743;28;2944;-69
2024/03/21 23:19:30;;;;;;;;;;;;;;;6.59;100.00;96428.84;10493944;28;2912;-69
2024/03/21 23:24:33;;;;;;;;;;;;;;;6.48;100.00;96427.78;10495897;28;2908;-69
2024/03/21 23:29:35;;;;;;;;;;;;;;;6.52;100.00;96434.31;10497081;28;2736;-70
2024/03/21 23:34:38;;;;;;;;;;;;;;;6.48;100.00;96417.94;10491892;28;2777;-69
2024/03/21 23:39:39;;;;;;;;;;;;;;;6.41;100.00;96422.56;10491794;28;2762;-69
2024/03/21 23:44:41;;;;;;;;;;;;;;;6.36;100.00;96419.81;10494524;28;2799;-70
2024/03/21 23:49:43;;;;;;;;;;;;;;;6.29;100.00;96420.94;10496337;28;2746;-68
2024/03/21 23:54:45;;;;;;;;;;;;;;;6.25;100.00;96417.13;10492705;28;2622;-68
2024/03/21 23:59:47;;;;;;;;;;;;;;;6.19;100.00;96408.16;10494627;28;2730;-70
